createdAt,value
2018-11-04T00:01:58.689Z,63.97
2018-11-04T00:04:27.208Z,60.40
2018-11-04T00:06:55.764Z,55.57
2018-11-04T00:09:24.327Z,62.03
2018-11-04T00:11:52.832Z,63.10
2018-11-04T00:14:21.395Z,58.03
2018-11-04T00:16:49.963Z,56.53
2018-11-04T00:19:18.490Z,64.90
2018-11-04T00:21:47.005Z,56.20
2018-11-04T00:24:15.682Z,62.60
2018-11-04T00:26:44.100Z,56.77
2018-11-04T00:29:12.639Z,61.13
2018-11-04T00:31:41.147Z,60.10
2018-11-04T00:34:09.704Z,63.40
2018-11-04T00:36:38.971Z,63.00
2018-11-04T00:39:08.506Z,58.00
2018-11-04T00:41:37.043Z,58.60
2018-11-04T00:44:05.779Z,53.57
2018-11-04T00:46:34.284Z,66.07
2018-11-04T00:49:02.808Z,65.97
2018-11-04T00:51:31.334Z,50.83
2018-11-04T00:53:59.882Z,52.90
2018-11-04T00:56:28.515Z,59.88
2018-11-04T00:58:57.008Z,58.30
2018-11-04T01:01:25.572Z,67.63
2018-11-04T01:03:54.100Z,47.47
2018-11-04T01:06:22.666Z,56.73
2018-11-04T01:08:51.249Z,50.63
2018-11-04T01:11:19.794Z,51.53
2018-11-04T01:13:48.609Z,50.17
2018-11-04T01:16:17.212Z,49.10
2018-11-04T01:18:45.777Z,46.77
2018-11-04T01:21:14.338Z,38.60
2018-11-04T01:23:42.874Z,37.67
2018-11-04T01:26:11.432Z,35.90
2018-11-04T01:28:39.996Z,45.70
2018-11-04T01:31:08.534Z,32.40
2018-11-04T01:33:37.072Z,40.13
2018-11-04T01:36:05.734Z,37.33
2018-11-04T01:38:34.228Z,33.13
2018-11-04T01:41:02.819Z,28.50
2018-11-04T01:43:31.352Z,32.20
2018-11-04T01:45:59.904Z,33.43
2018-11-04T01:48:28.417Z,35.67
2018-11-04T01:50:56.967Z,33.00
2018-11-04T01:53:25.486Z,37.73
2018-11-04T01:55:54.167Z,28.20
2018-11-04T01:58:22.680Z,31.17
2018-11-04T02:00:51.259Z,25.87
2018-11-04T02:03:19.804Z,29.03
2018-11-04T02:05:48.391Z,30.13
2018-11-04T02:08:16.951Z,26.07
2018-11-04T02:10:45.523Z,34.30
2018-11-04T02:13:14.072Z,26.17
2018-11-04T02:15:42.649Z,28.33
2018-11-04T02:18:11.147Z,28.53
2018-11-04T02:20:39.660Z,25.67
2018-11-04T02:23:08.245Z,23.03
2018-11-04T02:25:36.881Z,23.77
2018-11-04T02:28:05.740Z,29.87
2018-11-04T02:30:34.232Z,28.63
2018-11-04T02:33:02.764Z,25.40
2018-11-04T02:35:31.336Z,27.23
2018-11-04T02:37:59.865Z,25.27
2018-11-04T02:40:28.423Z,28.00
2018-11-04T02:42:56.967Z,27.47
2018-11-04T02:45:25.508Z,28.40
2018-11-04T02:47:54.089Z,27.00
2018-11-04T02:50:22.654Z,25.70
2018-11-04T02:52:51.183Z,25.33
2018-11-04T02:55:19.732Z,27.97
2018-11-04T02:57:48.261Z,34.27
2018-11-04T03:00:16.784Z,28.00
2018-11-04T03:02:45.355Z,28.80
2018-11-04T03:05:13.932Z,45.40
2018-11-04T03:07:42.990Z,35.40
2018-11-04T03:10:12.971Z,33.80
2018-11-04T03:12:41.528Z,35.13
2018-11-04T03:15:10.158Z,29.70
2018-11-04T03:17:38.710Z,36.27
2018-11-04T03:20:07.571Z,35.80
2018-11-04T03:22:36.180Z,41.70
2018-11-04T03:25:05.031Z,40.13
2018-11-04T03:27:33.592Z,37.47
2018-11-04T03:30:02.132Z,36.20
2018-11-04T03:32:30.685Z,35.67
2018-11-04T03:34:59.165Z,39.20
2018-11-04T03:37:27.712Z,39.13
2018-11-04T03:39:56.224Z,42.30
2018-11-04T03:42:24.772Z,41.23
2018-11-04T03:44:53.383Z,40.60
2018-11-04T03:47:21.967Z,45.23
2018-11-04T03:49:50.497Z,43.90
2018-11-04T03:52:19.044Z,42.77
2018-11-04T03:54:47.576Z,37.57
2018-11-04T03:57:16.156Z,35.97
2018-11-04T03:59:44.703Z,39.83
2018-11-04T04:02:13.237Z,35.03
2018-11-04T04:04:41.744Z,38.47
2018-11-04T04:07:10.409Z,48.07
2018-11-04T04:09:38.990Z,38.10
2018-11-04T04:12:07.535Z,35.87
2018-11-04T04:14:36.065Z,31.90
2018-11-04T04:17:04.655Z,44.20
2018-11-04T04:19:33.212Z,40.13
2018-11-04T04:22:01.769Z,44.23
2018-11-04T04:24:30.327Z,41.07
2018-11-04T04:26:58.824Z,40.47
2018-11-04T04:29:27.380Z,35.87
2018-11-04T04:31:56.006Z,42.83
2018-11-04T04:34:24.631Z,36.33
2018-11-04T04:36:53.143Z,35.20
2018-11-04T04:39:21.636Z,36.27
2018-11-04T04:41:50.236Z,37.60
2018-11-04T04:44:18.788Z,43.07
2018-11-04T04:46:47.402Z,41.93
2018-11-04T04:49:15.927Z,37.67
2018-11-04T04:51:44.500Z,39.07
2018-11-04T04:54:13.055Z,48.37
2018-11-04T04:56:41.584Z,39.60
2018-11-04T04:59:10.717Z,43.10
2018-11-04T05:01:39.252Z,45.07
2018-11-04T05:04:07.761Z,42.03
2018-11-04T05:06:36.323Z,45.37
2018-11-04T05:09:05.959Z,44.00
2018-11-04T05:11:34.537Z,46.10
2018-11-04T05:14:03.073Z,42.83
2018-11-04T05:16:31.609Z,38.67
2018-11-04T05:19:00.175Z,37.00
2018-11-04T05:21:28.718Z,39.33
2018-11-04T05:23:57.280Z,40.67
2018-11-04T05:26:25.844Z,38.03
2018-11-04T05:28:54.375Z,46.70
2018-11-04T05:31:22.892Z,42.20
2018-11-04T05:33:51.431Z,41.87
2018-11-04T05:36:20.024Z,39.40
2018-11-04T05:38:48.532Z,35.83
2018-11-04T05:41:17.047Z,38.20
2018-11-04T05:43:45.628Z,37.80
2018-11-04T05:46:14.204Z,36.50
2018-11-04T05:48:42.785Z,31.33
2018-11-04T05:51:11.532Z,28.40
2018-11-04T05:53:40.891Z,26.97
2018-11-04T05:56:10.183Z,31.40
2018-11-04T05:58:38.708Z,29.63
2018-11-04T06:01:07.780Z,26.20
2018-11-04T06:03:36.407Z,33.17
2018-11-04T06:06:05.012Z,29.83
2018-11-04T06:08:33.588Z,34.60
2018-11-04T06:11:02.133Z,31.50
2018-11-04T06:13:30.690Z,27.87
2018-11-04T06:15:59.243Z,22.53
2018-11-04T06:18:27.799Z,31.90
2018-11-04T06:20:56.392Z,25.23
2018-11-04T06:23:24.929Z,28.07
2018-11-04T06:25:53.472Z,25.10
2018-11-04T06:28:22.004Z,23.20
2018-11-04T06:30:50.499Z,23.43
2018-11-04T06:33:19.023Z,28.97
2018-11-04T06:35:47.564Z,25.13
2018-11-04T06:38:16.189Z,29.30
2018-11-04T06:40:44.711Z,26.10
2018-11-04T06:43:13.279Z,17.57
2018-11-04T06:45:41.860Z,17.13
2018-11-04T06:48:10.452Z,25.97
2018-11-04T06:50:38.995Z,25.50
2018-11-04T06:53:07.580Z,21.62
2018-11-04T06:55:36.151Z,16.13
2018-11-04T06:58:04.919Z,29.60
2018-11-04T07:00:33.565Z,22.67
2018-11-04T07:03:02.133Z,23.73
2018-11-04T07:05:30.668Z,21.00
2018-11-04T07:07:59.221Z,21.30
2018-11-04T07:10:27.747Z,26.03
2018-11-04T07:12:56.294Z,23.57
2018-11-04T07:15:24.849Z,23.20
2018-11-04T07:17:53.402Z,32.47
2018-11-04T07:20:21.943Z,29.63
2018-11-04T07:22:50.502Z,34.65
2018-11-04T07:25:18.983Z,30.37
2018-11-04T07:27:47.549Z,31.37
2018-11-04T07:30:16.105Z,30.37
2018-11-04T07:32:44.607Z,35.60
2018-11-04T07:35:13.174Z,29.07
2018-11-04T07:37:41.810Z,29.23
2018-11-04T07:40:10.365Z,30.47
2018-11-04T07:42:39.384Z,30.70
2018-11-04T07:45:08.670Z,29.20
2018-11-04T07:47:37.291Z,36.13
2018-11-04T07:50:09.115Z,35.50
2018-11-04T07:52:37.644Z,43.27
2018-11-04T07:55:08.664Z,36.60
2018-11-04T07:57:39.276Z,32.20
2018-11-04T08:00:10.151Z,34.20
2018-11-04T08:02:38.674Z,37.77
2018-11-04T08:05:08.104Z,35.23
2018-11-04T08:07:37.306Z,39.70
2018-11-04T08:10:07.337Z,35.97
2018-11-04T08:12:35.923Z,42.50
2018-11-04T08:15:04.508Z,39.17
2018-11-04T08:17:33.059Z,31.10
2018-11-04T08:20:01.613Z,36.70
2018-11-04T08:22:30.226Z,26.23
2018-11-04T08:24:58.848Z,42.67
2018-11-04T08:27:27.466Z,29.43
2018-11-04T08:29:56.036Z,30.87
2018-11-04T08:32:25.097Z,58.30
2018-11-04T08:34:54.012Z,32.40
2018-11-04T08:37:22.679Z,64.50
2018-11-04T08:39:51.409Z,30.37
2018-11-04T08:42:19.923Z,21.83
2018-11-04T08:44:48.496Z,25.90
2018-11-04T08:47:17.740Z,19.47
2018-11-04T08:49:47.547Z,20.40
2018-11-04T08:52:16.112Z,25.57
2018-11-04T08:54:44.901Z,29.50
2018-11-04T08:57:13.936Z,17.80
2018-11-04T08:59:43.516Z,20.57
2018-11-04T09:02:12.096Z,20.43
2018-11-04T09:04:40.652Z,21.10
2018-11-04T09:07:09.195Z,18.40
2018-11-04T09:09:37.756Z,21.67
2018-11-04T09:12:06.363Z,28.90
2018-11-04T09:14:34.905Z,23.27
2018-11-04T09:17:03.490Z,21.40
2018-11-04T09:19:32.025Z,26.70
2018-11-04T09:22:00.693Z,20.43
2018-11-04T09:24:29.147Z,25.37
2018-11-04T09:26:57.667Z,25.77
2018-11-04T09:29:26.288Z,23.20
2018-11-04T09:31:54.780Z,27.93
2018-11-04T09:34:23.340Z,28.13
2018-11-04T09:36:51.871Z,27.33
2018-11-04T09:39:20.400Z,29.60
2018-11-04T09:41:48.947Z,24.90
2018-11-04T09:44:17.487Z,30.03
2018-11-04T09:46:46.100Z,29.97
2018-11-04T09:49:14.621Z,27.93
2018-11-04T09:51:43.145Z,29.00
2018-11-04T09:54:11.763Z,27.63
2018-11-04T09:56:40.775Z,29.23
2018-11-04T09:59:09.075Z,24.63
2018-11-04T10:01:37.621Z,26.57
2018-11-04T10:04:06.329Z,36.03
2018-11-04T10:06:34.866Z,29.43
2018-11-04T10:09:03.513Z,31.47
2018-11-04T10:11:32.080Z,28.40
2018-11-04T10:14:00.652Z,27.80
2018-11-04T10:16:29.225Z,25.30
2018-11-04T10:18:57.957Z,33.97
2018-11-04T10:21:26.337Z,36.30
2018-11-04T10:23:54.926Z,27.73
2018-11-04T10:26:23.495Z,29.40
2018-11-04T10:28:52.082Z,29.63
2018-11-04T10:31:20.637Z,28.20
2018-11-04T10:33:49.165Z,29.63
2018-11-04T10:36:17.753Z,28.40
2018-11-04T10:38:46.314Z,35.37
2018-11-04T10:41:14.845Z,29.37
2018-11-04T10:43:43.368Z,25.20
2018-11-04T10:46:11.911Z,27.20
2018-11-04T10:48:40.490Z,30.27
2018-11-04T10:51:09.039Z,24.13
2018-11-04T10:53:37.668Z,26.10
2018-11-04T10:56:06.282Z,23.60
2018-11-04T10:58:34.832Z,27.77
2018-11-04T11:01:09.421Z,30.13
2018-11-04T11:03:38.877Z,24.73
2018-11-04T11:06:07.684Z,27.83
2018-11-04T11:08:36.295Z,32.23
2018-11-04T11:11:05.357Z,31.07
2018-11-04T11:13:33.898Z,29.17
2018-11-04T11:16:02.428Z,29.03
2018-11-04T11:18:31.037Z,34.93
2018-11-04T11:20:59.592Z,28.60
2018-11-04T11:23:28.192Z,28.37
2018-11-04T11:25:56.727Z,27.00
2018-11-04T11:28:25.265Z,27.10
2018-11-04T11:30:53.828Z,27.07
2018-11-04T11:33:22.374Z,24.17
2018-11-04T11:35:50.920Z,26.53
2018-11-04T11:38:19.493Z,26.73
2018-11-04T11:40:48.015Z,21.50
2018-11-04T11:43:16.626Z,24.70
2018-11-04T11:45:45.202Z,26.00
2018-11-04T11:48:13.761Z,25.80
2018-11-04T11:50:42.343Z,28.13
2018-11-04T11:53:11.014Z,24.43
2018-11-04T11:55:39.575Z,24.30
2018-11-04T11:58:08.120Z,28.07
2018-11-04T12:00:36.711Z,21.37
2018-11-04T12:03:05.361Z,53.30
2018-11-04T12:05:33.902Z,60.93
2018-11-04T12:08:02.466Z,31.00
2018-11-04T12:10:31.238Z,54.77
2018-11-04T12:12:59.775Z,32.83
2018-11-04T12:15:28.291Z,38.03
2018-11-04T12:17:56.895Z,39.83
2018-11-04T12:20:25.402Z,37.53
2018-11-04T12:22:53.952Z,37.40
2018-11-04T12:25:22.498Z,33.90
2018-11-04T12:27:51.101Z,27.60
2018-11-04T12:30:19.627Z,21.60
2018-11-04T12:32:48.172Z,25.97
2018-11-04T12:35:16.822Z,32.00
2018-11-04T12:37:45.271Z,25.37
2018-11-04T12:40:14.269Z,22.80
2018-11-04T12:42:42.805Z,23.57
2018-11-04T12:45:12.414Z,23.40
2018-11-04T12:47:41.028Z,22.97
2018-11-04T12:50:10.663Z,22.77
2018-11-04T12:52:39.227Z,23.40
2018-11-04T12:55:08.451Z,24.33
2018-11-04T12:57:37.016Z,24.00
2018-11-04T13:00:08.769Z,23.87
2018-11-04T13:02:37.340Z,24.80
2018-11-04T13:05:07.095Z,23.43
2018-11-04T13:07:35.609Z,25.87
2018-11-04T13:10:04.714Z,21.20
2018-11-04T13:12:33.437Z,24.83
2018-11-04T13:15:01.964Z,20.50
2018-11-04T13:17:30.523Z,24.43
2018-11-04T13:19:59.294Z,25.70
2018-11-04T13:22:27.854Z,19.97
2018-11-04T13:24:56.436Z,25.40
2018-11-04T13:27:24.975Z,28.60
2018-11-04T13:29:53.503Z,25.60
2018-11-04T13:32:22.032Z,26.70
2018-11-04T13:34:50.630Z,25.23
2018-11-04T13:37:19.199Z,24.17
2018-11-04T13:39:47.732Z,21.87
2018-11-04T13:42:16.277Z,26.90
2018-11-04T13:44:44.820Z,25.80
2018-11-04T13:47:13.369Z,28.03
2018-11-04T13:49:41.937Z,28.77
2018-11-04T13:52:10.545Z,31.57
2018-11-04T13:54:39.073Z,24.47
2018-11-04T13:57:07.667Z,18.77
2018-11-04T13:59:36.288Z,22.73
2018-11-04T14:02:05.008Z,23.93
2018-11-04T14:04:33.551Z,20.83
2018-11-04T14:07:02.135Z,22.23
2018-11-04T14:09:30.702Z,25.30
2018-11-04T14:11:59.253Z,25.70
2018-11-04T14:14:27.811Z,24.33
2018-11-04T14:16:56.320Z,28.20
2018-11-04T14:19:24.884Z,24.70
2018-11-04T14:21:53.441Z,25.67
2018-11-04T14:24:21.996Z,26.53
2018-11-04T14:26:50.571Z,28.67
2018-11-04T14:29:19.108Z,25.47
2018-11-04T14:31:47.702Z,23.10
2018-11-04T14:34:16.223Z,20.93
2018-11-04T14:36:44.788Z,30.67
2018-11-04T14:39:13.395Z,29.00
2018-11-04T14:41:41.915Z,23.47
2018-11-04T14:44:10.519Z,28.27
2018-11-04T14:46:39.094Z,24.60
2018-11-04T14:49:07.626Z,23.57
2018-11-04T14:51:36.151Z,24.90
2018-11-04T14:54:05.256Z,21.03
2018-11-04T14:56:35.269Z,23.30
2018-11-04T14:59:03.908Z,21.87
2018-11-04T15:01:32.550Z,19.50
2018-11-04T15:04:01.062Z,18.90
2018-11-04T15:06:29.648Z,21.00
2018-11-04T15:08:58.223Z,24.10
2018-11-04T15:11:26.778Z,23.63
2018-11-04T15:13:55.319Z,27.27
2018-11-04T15:16:23.852Z,23.53
2018-11-04T15:18:52.644Z,24.90
2018-11-04T15:21:21.144Z,24.23
2018-11-04T15:23:49.924Z,21.70
2018-11-04T15:26:18.495Z,24.17
2018-11-04T15:28:47.083Z,25.83
2018-11-04T15:31:15.635Z,27.00
2018-11-04T15:33:46.107Z,25.83
2018-11-04T15:36:14.724Z,28.70
2018-11-04T15:38:43.288Z,24.50
2018-11-04T15:41:11.790Z,28.73
2018-11-04T15:43:40.338Z,22.93
2018-11-04T15:46:08.928Z,29.40
2018-11-04T15:48:37.497Z,23.67
2018-11-04T15:51:06.020Z,25.27
2018-11-04T15:53:34.574Z,26.67
2018-11-04T15:56:03.091Z,24.63
2018-11-04T15:58:31.604Z,24.17
2018-11-04T16:01:00.141Z,24.50
2018-11-04T16:03:28.712Z,24.83
2018-11-04T16:05:57.287Z,26.70
2018-11-04T16:08:25.815Z,24.20
2018-11-04T16:10:54.381Z,25.70
2018-11-04T16:13:22.934Z,27.20
2018-11-04T16:15:51.512Z,24.03
2018-11-04T16:18:20.156Z,33.10
2018-11-04T16:20:48.611Z,25.07
2018-11-04T16:23:17.167Z,24.23
2018-11-04T16:25:45.716Z,36.70
2018-11-04T16:28:14.277Z,31.40
2018-11-04T16:30:42.813Z,30.50
2018-11-04T16:33:11.359Z,38.00
2018-11-04T16:35:39.956Z,31.07
2018-11-04T16:38:08.800Z,34.77
2018-11-04T16:40:37.376Z,34.57
2018-11-04T16:43:06.009Z,35.23
2018-11-04T16:45:34.555Z,38.57
2018-11-04T16:48:03.105Z,31.77
2018-11-04T16:50:31.658Z,32.67
2018-11-04T16:53:00.202Z,30.67
2018-11-04T16:55:28.729Z,32.30
2018-11-04T16:57:57.305Z,33.50
2018-11-04T17:00:25.865Z,31.57
2018-11-04T17:02:54.415Z,39.73
2018-11-04T17:05:23.116Z,35.50
2018-11-04T17:07:51.616Z,36.53
2018-11-04T17:10:20.162Z,30.67
2018-11-04T17:12:48.748Z,35.83
2018-11-04T17:15:17.308Z,32.73
2018-11-04T17:17:45.913Z,26.47
2018-11-04T17:20:16.405Z,28.30
2018-11-04T17:22:45.476Z,32.00
2018-11-04T17:25:14.279Z,34.90
2018-11-04T17:27:43.061Z,29.30
2018-11-04T17:30:14.819Z,33.70
2018-11-04T17:32:43.625Z,30.17
2018-11-04T17:35:13.507Z,29.17
2018-11-04T17:37:42.649Z,33.60
2018-11-04T17:40:12.038Z,33.20
2018-11-04T17:42:40.611Z,31.77
2018-11-04T17:45:10.624Z,34.80
2018-11-04T17:47:39.271Z,34.87
2018-11-04T17:50:11.410Z,30.77
2018-11-04T17:52:39.903Z,38.07
2018-11-04T17:55:08.643Z,37.07
2018-11-04T17:57:37.217Z,49.20
2018-11-04T18:00:06.866Z,35.77
2018-11-04T18:02:35.364Z,31.20
2018-11-04T18:05:04.006Z,33.87
2018-11-04T18:07:32.593Z,29.43
2018-11-04T18:10:01.150Z,25.77
2018-11-04T18:12:29.712Z,25.27
2018-11-04T18:14:58.296Z,24.93
2018-11-04T18:17:26.832Z,29.87
2018-11-04T18:19:55.407Z,30.33
2018-11-04T18:22:23.900Z,32.57
2018-11-04T18:24:52.524Z,31.83
2018-11-04T18:27:21.200Z,42.70
2018-11-04T18:29:49.766Z,42.90
2018-11-04T18:32:18.482Z,39.30
2018-11-04T18:34:46.991Z,31.10
2018-11-04T18:37:15.594Z,30.33
2018-11-04T18:39:44.144Z,33.30
2018-11-04T18:42:12.721Z,31.67
2018-11-04T18:44:41.459Z,31.80
2018-11-04T18:47:09.921Z,28.93
2018-11-04T18:49:38.476Z,28.90
2018-11-04T18:52:07.432Z,30.73
2018-11-04T18:54:36.057Z,36.33
2018-11-04T18:57:04.600Z,30.00
2018-11-04T18:59:33.124Z,30.17
2018-11-04T19:02:01.720Z,27.97
2018-11-04T19:04:30.463Z,31.33
2018-11-04T19:06:58.987Z,35.90
2018-11-04T19:09:27.601Z,35.77
2018-11-04T19:11:56.271Z,46.93
2018-11-04T19:14:24.800Z,40.40
2018-11-04T19:16:53.340Z,41.37
2018-11-04T19:19:21.955Z,30.80
2018-11-04T19:21:50.547Z,39.13
2018-11-04T19:24:19.121Z,35.60
2018-11-04T19:26:47.699Z,40.50
2018-11-04T19:29:16.324Z,33.80
2018-11-04T19:31:44.869Z,33.03
2018-11-04T19:34:13.448Z,41.97
2018-11-04T19:36:41.968Z,51.07
2018-11-04T19:39:11.773Z,48.57
2018-11-04T19:41:40.365Z,50.20
2018-11-04T19:44:08.836Z,57.80
2018-11-04T19:46:37.438Z,53.70
2018-11-04T19:49:06.298Z,64.50
2018-11-04T19:51:34.840Z,61.80
2018-11-04T19:54:03.415Z,90.00
2018-11-04T19:56:32.011Z,147.50
2018-11-04T19:59:00.593Z,57.57
2018-11-04T20:01:29.111Z,89.73
2018-11-04T20:03:57.660Z,135.73
2018-11-04T20:06:26.236Z,130.57
2018-11-04T20:09:00.204Z,42.40
2018-11-04T20:11:28.789Z,108.50
2018-11-04T20:14:02.617Z,127.40
2018-11-04T20:16:31.217Z,120.77
2018-11-04T20:19:05.058Z,126.27
2018-11-04T20:21:33.631Z,140.97
2018-11-04T20:24:06.340Z,183.73
2018-11-04T20:26:35.126Z,59.43
2018-11-04T20:29:05.178Z,108.23
2018-11-04T20:31:39.032Z,142.10
2018-11-04T20:34:07.620Z,36.07
2018-11-04T20:36:36.289Z,49.07
2018-11-04T20:39:12.349Z,49.43
2018-11-04T20:41:41.222Z,27.70
2018-11-04T20:44:09.768Z,72.03
2018-11-04T20:46:38.534Z,46.37
2018-11-04T20:49:12.281Z,27.10
2018-11-04T20:51:40.919Z,29.82
2018-11-04T20:54:09.408Z,47.10
2018-11-04T20:56:43.171Z,53.37
2018-11-04T20:59:12.312Z,65.60
2018-11-04T21:01:40.909Z,109.13
2018-11-04T21:04:09.487Z,130.50
2018-11-04T21:06:38.433Z,79.93
2018-11-04T21:09:09.253Z,27.77
2018-11-04T21:11:37.775Z,64.53
2018-11-04T21:14:06.434Z,34.93
2018-11-04T21:16:35.102Z,25.90
2018-11-04T21:19:03.548Z,51.00
2018-11-04T21:21:32.620Z,62.00
2018-11-04T21:24:01.170Z,72.37
2018-11-04T21:26:29.689Z,41.00
2018-11-04T21:28:58.410Z,98.93
2018-11-04T21:31:26.776Z,114.17
2018-11-04T21:33:55.318Z,68.42
2018-11-04T21:36:25.416Z,41.88
2018-11-04T21:38:54.272Z,25.70
2018-11-04T21:41:22.827Z,48.87
2018-11-04T21:43:57.933Z,56.65
2018-11-04T21:46:26.277Z,36.50
2018-11-04T21:48:54.803Z,52.78
2018-11-04T21:51:23.336Z,23.77
2018-11-04T21:53:51.917Z,21.40
2018-11-04T21:56:20.522Z,21.87
2018-11-04T21:58:49.011Z,30.45
2018-11-04T22:01:17.542Z,26.75
2018-11-04T22:03:46.267Z,64.42
2018-11-04T22:06:14.626Z,25.82
2018-11-04T22:08:43.175Z,20.12
2018-11-04T22:11:11.741Z,30.17
2018-11-04T22:13:40.400Z,48.23
2018-11-04T22:16:08.858Z,36.30
2018-11-04T22:18:37.384Z,125.97
2018-11-04T22:21:05.987Z,54.80
2018-11-04T22:23:34.544Z,36.23
2018-11-04T22:26:03.151Z,53.92
2018-11-04T22:28:31.639Z,53.33
2018-11-04T22:31:00.209Z,41.75
2018-11-04T22:33:28.745Z,24.27
2018-11-04T22:35:57.252Z,42.05
2018-11-04T22:38:25.808Z,49.55
2018-11-04T22:40:54.343Z,26.23
2018-11-04T22:43:22.884Z,27.75
2018-11-04T22:45:51.429Z,23.85
2018-11-04T22:48:19.985Z,19.62
2018-11-04T22:50:48.552Z,35.98
2018-11-04T22:53:17.130Z,19.70
2018-11-04T22:55:45.678Z,18.25
2018-11-04T22:58:14.211Z,27.95
2018-11-04T23:00:45.168Z,18.12
2018-11-04T23:03:13.821Z,19.15
2018-11-04T23:05:42.375Z,55.92
2018-11-04T23:08:10.920Z,22.70
2018-11-04T23:10:39.447Z,34.00
2018-11-04T23:13:08.028Z,16.62
2018-11-04T23:15:36.531Z,16.23
2018-11-04T23:18:05.278Z,18.70
2018-11-04T23:20:33.807Z,22.58
2018-11-04T23:23:02.328Z,16.48
2018-11-04T23:25:30.868Z,16.55
2018-11-04T23:27:59.431Z,12.73
2018-11-04T23:30:28.008Z,19.20
2018-11-04T23:32:56.527Z,18.77
2018-11-04T23:35:25.095Z,22.58
2018-11-04T23:37:53.654Z,18.27
2018-11-04T23:40:22.213Z,22.35
2018-11-04T23:42:50.806Z,50.43
2018-11-04T23:45:19.360Z,27.70
2018-11-04T23:47:47.907Z,32.25
2018-11-04T23:50:17.354Z,14.73
2018-11-04T23:52:46.140Z,13.70
2018-11-04T23:55:15.406Z,15.13
2018-11-04T23:57:44.031Z,13.85
